GBFRV EGLL-LIMJ
Flight info
| Callsign | GBFRV |
|---|---|
| Flight time | N/A |
| Altitude | 37000 |
| Route | MODMI M185 MID UL612 OGULO DCT OKASI DCT OKEKO DCT MOU DCT MADIV DCT MOKIP DCT TUFTA DCT GEVEA/N0496F330 DCT MOBLO DCT LURAG DCT OBUXA DCT TOP/N0432F190 M730 TESTO |
| Aircraft | B78X/H-SDE1E2E3FGHIJ2J3J4J5M1RWXY/LB1D1 |
Departure
| Time | 2026-05-07 12:45 |
|---|---|
| Airport | London Heathrow Airport (EGLL) |
Arrival
| Time | N/A |
|---|---|
| Airport | Genoa Cristoforo Colombo Airport (LIMJ) |
| Time | Latitude | Longitude | Altitude | Speed | Heading |
|---|---|---|---|---|---|
| 2026-05-07 12:22 | 51.46938 | -0.44195 | 94 ft | 0 kts | 269° |
| 2026-05-07 12:26 | 51.46938 | -0.44197 | 92 ft | 0 kts | 269° |
| 2026-05-07 12:36 | 51.46939 | -0.44174 | 92 ft | 5 kts | 267° |
| 2026-05-07 12:36 | 51.46940 | -0.44138 | 92 ft | 1 kts | 268° |
| 2026-05-07 12:36 | 51.46941 | -0.44107 | 92 ft | 6 kts | 267° |
| 2026-05-07 12:37 | 51.46957 | -0.44048 | 91 ft | 0 kts | 188° |
| 2026-05-07 12:37 | 51.46956 | -0.44048 | 92 ft | 0 kts | 188° |
| 2026-05-07 12:39 | 51.46954 | -0.44049 | 92 ft | 2 kts | 188° |
| 2026-05-07 12:39 | 51.46896 | -0.44054 | 95 ft | 14 kts | 181° |
| 2026-05-07 12:39 | 51.46782 | -0.44076 | 94 ft | 16 kts | 212° |
| 2026-05-07 12:39 | 51.46755 | -0.44238 | 94 ft | 17 kts | 266° |
| 2026-05-07 12:40 | 51.46754 | -0.44450 | 94 ft | 22 kts | 270° |
| 2026-05-07 12:40 | 51.46752 | -0.44722 | 92 ft | 27 kts | 269° |
| 2026-05-07 12:40 | 51.46752 | -0.45053 | 92 ft | 32 kts | 270° |
| 2026-05-07 12:40 | 51.46750 | -0.45445 | 92 ft | 38 kts | 270° |
| 2026-05-07 12:41 | 51.46749 | -0.45889 | 95 ft | 42 kts | 270° |
| 2026-05-07 12:41 | 51.46747 | -0.46358 | 95 ft | 41 kts | 270° |
| 2026-05-07 12:41 | 51.46748 | -0.46730 | 95 ft | 19 kts | 269° |
| 2026-05-07 12:41 | 51.46748 | -0.46951 | 95 ft | 23 kts | 270° |
| 2026-05-07 12:42 | 51.46746 | -0.47259 | 95 ft | 32 kts | 269° |
| 2026-05-07 12:42 | 51.46745 | -0.47659 | 92 ft | 40 kts | 270° |
| 2026-05-07 12:42 | 51.46743 | -0.48097 | 92 ft | 39 kts | 269° |
| 2026-05-07 12:42 | 51.46737 | -0.48408 | 92 ft | 9 kts | 251° |
| 2026-05-07 12:43 | 51.46713 | -0.48448 | 94 ft | 0 kts | 212° |
| 2026-05-07 12:43 | 51.46677 | -0.48464 | 95 ft | 10 kts | 187° |
| 2026-05-07 12:43 | 51.46582 | -0.48467 | 92 ft | 17 kts | 180° |
| 2026-05-07 12:43 | 51.46482 | -0.48387 | 96 ft | 15 kts | 103° |
| 2026-05-07 12:44 | 51.46479 | -0.48215 | 94 ft | 15 kts | 89° |
| 2026-05-07 12:44 | 51.46480 | -0.47781 | 92 ft | 79 kts | 90° |
| 2026-05-07 12:44 | 51.46484 | -0.46449 | 97 ft | 157 kts | 90° |
| 2026-05-07 12:44 | 51.46476 | -0.44448 | 602 ft | 195 kts | 91° |
| 2026-05-07 12:45 | 51.46448 | -0.42108 | 1589 ft | 213 kts | 95° |
| 2026-05-07 12:45 | 51.45969 | -0.39759 | 2433 ft | 231 kts | 119° |
| 2026-05-07 12:45 | 51.45027 | -0.37694 | 3249 ft | 236 kts | 141° |
| 2026-05-07 12:45 | 51.43516 | -0.36673 | 4160 ft | 242 kts | 166° |
| 2026-05-07 12:46 | 51.41824 | -0.35994 | 5075 ft | 259 kts | 169° |
| 2026-05-07 12:46 | 51.40010 | -0.35828 | 5790 ft | 265 kts | 193° |
| 2026-05-07 12:46 | 51.38283 | -0.36875 | 6076 ft | 269 kts | 206° |
| 2026-05-07 12:46 | 51.36633 | -0.38236 | 6203 ft | 261 kts | 209° |
| 2026-05-07 12:47 | 51.35002 | -0.39586 | 6711 ft | 270 kts | 207° |
| 2026-05-07 12:47 | 51.33307 | -0.40906 | 7195 ft | 271 kts | 206° |
| 2026-05-07 12:47 | 51.31594 | -0.42220 | 7685 ft | 274 kts | 206° |
| 2026-05-07 12:47 | 51.29869 | -0.43558 | 8195 ft | 277 kts | 206° |
| 2026-05-07 12:48 | 51.28129 | -0.44913 | 8715 ft | 280 kts | 205° |
| 2026-05-07 12:48 | 51.26367 | -0.46282 | 9243 ft | 282 kts | 205° |
| 2026-05-07 12:48 | 51.24596 | -0.47654 | 9777 ft | 284 kts | 205° |
| 2026-05-07 12:48 | 51.22803 | -0.49041 | 10296 ft | 292 kts | 205° |
| 2026-05-07 12:49 | 51.20913 | -0.50507 | 10910 ft | 312 kts | 205° |
| 2026-05-07 12:49 | 51.18898 | -0.52070 | 11576 ft | 332 kts | 205° |
| 2026-05-07 12:49 | 51.16774 | -0.53716 | 12246 ft | 346 kts | 205° |
| 2026-05-07 12:49 | 51.14594 | -0.55404 | 12937 ft | 349 kts | 205° |
| 2026-05-07 12:50 | 51.12391 | -0.57105 | 13627 ft | 354 kts | 205° |
| 2026-05-07 12:50 | 51.10194 | -0.58801 | 14259 ft | 357 kts | 205° |
| 2026-05-07 12:50 | 51.07916 | -0.60354 | 14877 ft | 359 kts | 194° |
| 2026-05-07 12:50 | 51.05420 | -0.60717 | 15528 ft | 363 kts | 175° |
| 2026-05-07 12:51 | 51.02971 | -0.59702 | 16212 ft | 368 kts | 156° |
| 2026-05-07 12:51 | 51.00760 | -0.57588 | 16896 ft | 374 kts | 148° |
| 2026-05-07 12:51 | 50.98586 | -0.55272 | 17575 ft | 378 kts | 147° |
| 2026-05-07 12:51 | 50.96406 | -0.52887 | 18268 ft | 383 kts | 147° |
| 2026-05-07 12:52 | 50.94186 | -0.50511 | 18884 ft | 387 kts | 148° |
| 2026-05-07 12:52 | 50.91931 | -0.48138 | 19491 ft | 391 kts | 148° |
| 2026-05-07 12:52 | 50.89662 | -0.45737 | 19498 ft | 395 kts | 148° |
| 2026-05-07 12:52 | 50.87388 | -0.43311 | 19491 ft | 393 kts | 148° |
| 2026-05-07 12:53 | 50.86053 | -0.41890 | 19481 ft | 387 kts | 148° |
| 2026-05-07 12:53 | 50.83884 | -0.39559 | 19380 ft | 368 kts | 147° |
| 2026-05-07 12:53 | 50.81793 | -0.37366 | 19117 ft | 355 kts | 149° |
| 2026-05-07 12:53 | 50.79733 | -0.35242 | 18518 ft | 354 kts | 149° |
| 2026-05-07 12:54 | 50.77647 | -0.33107 | 17561 ft | 361 kts | 149° |
| 2026-05-07 12:54 | 50.75556 | -0.30993 | 17125 ft | 352 kts | 149° |
| 2026-05-07 12:54 | 50.73642 | -0.29002 | 17803 ft | 313 kts | 148° |
| 2026-05-07 12:54 | 50.71910 | -0.27119 | 17950 ft | 293 kts | 146° |
| 2026-05-07 12:55 | 50.70320 | -0.25261 | 18017 ft | 275 kts | 147° |
| 2026-05-07 12:55 | 50.68789 | -0.23626 | 18073 ft | 258 kts | 149° |
| 2026-05-07 12:55 | 50.67332 | -0.22139 | 18106 ft | 241 kts | 149° |
| 2026-05-07 12:55 | 50.65951 | -0.20704 | 18162 ft | 246 kts | 149° |
| 2026-05-07 12:56 | 50.64441 | -0.19125 | 18314 ft | 275 kts | 149° |
| 2026-05-07 12:56 | 50.62768 | -0.17369 | 18488 ft | 302 kts | 148° |
| 2026-05-07 12:56 | 50.60942 | -0.15454 | 18701 ft | 328 kts | 148° |
| 2026-05-07 12:56 | 50.58964 | -0.13384 | 18909 ft | 353 kts | 148° |
| 2026-05-07 12:57 | 50.57586 | -0.11943 | 19052 ft | 368 kts | 148° |
| 2026-05-07 12:57 | 50.56554 | -0.10866 | 19114 ft | 380 kts | 148° |
| 2026-05-07 12:58 | 50.54308 | -0.08519 | 19251 ft | 390 kts | 148° |
| 2026-05-07 12:58 | 50.52050 | -0.06160 | 19379 ft | 391 kts | 148° |
| 2026-05-07 12:58 | 50.49778 | -0.03793 | 19488 ft | 393 kts | 148° |
| 2026-05-07 12:58 | 50.47497 | -0.01423 | 19499 ft | 393 kts | 148° |
| 2026-05-07 12:59 | 50.45215 | 0.00946 | 19525 ft | 393 kts | 148° |
| 2026-05-07 12:59 | 50.42958 | 0.03290 | 20026 ft | 396 kts | 148° |
| 2026-05-07 12:59 | 50.40647 | 0.05684 | 20780 ft | 400 kts | 148° |
| 2026-05-07 12:59 | 50.38312 | 0.08100 | 21526 ft | 405 kts | 148° |
| 2026-05-07 13:00 | 50.35949 | 0.10542 | 22254 ft | 409 kts | 148° |
| 2026-05-07 13:00 | 50.33554 | 0.13011 | 22959 ft | 414 kts | 148° |
| 2026-05-07 13:00 | 50.31138 | 0.15497 | 23646 ft | 418 kts | 149° |
| 2026-05-07 13:00 | 50.28693 | 0.18012 | 24203 ft | 423 kts | 149° |
| 2026-05-07 13:01 | 50.26227 | 0.20546 | 24765 ft | 426 kts | 149° |
| 2026-05-07 13:01 | 50.23734 | 0.23104 | 25307 ft | 430 kts | 149° |
| 2026-05-07 13:01 | 50.21222 | 0.25677 | 25836 ft | 434 kts | 149° |
| 2026-05-07 13:01 | 50.18686 | 0.28276 | 26368 ft | 437 kts | 149° |
| 2026-05-07 13:02 | 50.16138 | 0.30902 | 26890 ft | 441 kts | 148° |
| 2026-05-07 13:02 | 50.13570 | 0.33550 | 27407 ft | 444 kts | 149° |
| 2026-05-07 13:02 | 50.10978 | 0.36208 | 27920 ft | 447 kts | 149° |
| 2026-05-07 13:02 | 50.08367 | 0.38880 | 28403 ft | 451 kts | 149° |
| 2026-05-07 13:03 | 50.05739 | 0.41569 | 28878 ft | 454 kts | 149° |
| 2026-05-07 13:03 | 50.03089 | 0.44281 | 29366 ft | 458 kts | 149° |
| 2026-05-07 13:03 | 50.00419 | 0.47007 | 29833 ft | 461 kts | 149° |
| 2026-05-07 13:03 | 49.97726 | 0.49751 | 30254 ft | 464 kts | 149° |
| 2026-05-07 13:04 | 49.95013 | 0.52512 | 30634 ft | 467 kts | 149° |
| 2026-05-07 13:04 | 49.92286 | 0.55286 | 31010 ft | 470 kts | 149° |
| 2026-05-07 13:04 | 49.89544 | 0.58070 | 31409 ft | 472 kts | 149° |
| 2026-05-07 13:04 | 49.86784 | 0.60868 | 31782 ft | 475 kts | 149° |
| 2026-05-07 13:05 | 49.84127 | 0.63930 | 32168 ft | 478 kts | 143° |
| 2026-05-07 13:05 | 49.81575 | 0.67154 | 32526 ft | 481 kts | 143° |
| 2026-05-07 13:05 | 49.78978 | 0.70435 | 32888 ft | 483 kts | 143° |
| 2026-05-07 13:05 | 49.76366 | 0.73721 | 33227 ft | 486 kts | 143° |
| 2026-05-07 13:06 | 49.73734 | 0.77019 | 33649 ft | 486 kts | 143° |
| 2026-05-07 13:06 | 49.71113 | 0.80306 | 34157 ft | 485 kts | 143° |
| 2026-05-07 13:06 | 49.68497 | 0.83584 | 34578 ft | 484 kts | 143° |
| 2026-05-07 13:06 | 49.65885 | 0.86851 | 34965 ft | 483 kts | 143° |
| 2026-05-07 13:07 | 49.64550 | 0.88517 | 35048 ft | 483 kts | 143° |
| 2026-05-07 13:07 | 49.61650 | 0.92134 | 35052 ft | 481 kts | 143° |
| 2026-05-07 13:08 | 49.56461 | 0.98594 | 35040 ft | 479 kts | 143° |
| 2026-05-07 13:08 | 49.51271 | 1.05036 | 35040 ft | 479 kts | 143° |
| 2026-05-07 13:09 | 49.46948 | 1.10386 | 35045 ft | 485 kts | 143° |
| 2026-05-07 13:09 | 49.43422 | 1.14741 | 35059 ft | 497 kts | 143° |
| 2026-05-07 13:09 | 49.40707 | 1.18092 | 35056 ft | 505 kts | 143° |
| 2026-05-07 13:10 | 49.36103 | 1.23763 | 35054 ft | 506 kts | 143° |
| 2026-05-07 13:10 | 49.30596 | 1.30524 | 35060 ft | 507 kts | 143° |
| 2026-05-07 13:11 | 49.25082 | 1.37277 | 35053 ft | 509 kts | 143° |
| 2026-05-07 13:11 | 49.19554 | 1.44023 | 35071 ft | 508 kts | 143° |
| 2026-05-07 13:12 | 49.14050 | 1.50724 | 35055 ft | 508 kts | 143° |
| 2026-05-07 13:12 | 49.08510 | 1.57446 | 35055 ft | 508 kts | 143° |
| 2026-05-07 13:13 | 49.02972 | 1.64148 | 35044 ft | 509 kts | 143° |
| 2026-05-07 13:13 | 48.97420 | 1.70846 | 35045 ft | 509 kts | 143° |
| 2026-05-07 13:14 | 48.91866 | 1.77527 | 35042 ft | 510 kts | 144° |
| 2026-05-07 13:14 | 48.86295 | 1.84209 | 35042 ft | 510 kts | 144° |
| 2026-05-07 13:15 | 48.80722 | 1.90874 | 35043 ft | 510 kts | 144° |
| 2026-05-07 13:15 | 48.75148 | 1.97522 | 35045 ft | 510 kts | 144° |
| 2026-05-07 13:16 | 48.69597 | 2.04122 | 35046 ft | 510 kts | 144° |
| 2026-05-07 13:16 | 48.64014 | 2.10742 | 35046 ft | 510 kts | 144° |
| 2026-05-07 13:17 | 48.58419 | 2.17356 | 35038 ft | 510 kts | 144° |
| 2026-05-07 13:17 | 48.53232 | 2.24716 | 35051 ft | 513 kts | 137° |
| 2026-05-07 13:18 | 48.48193 | 2.32361 | 35285 ft | 512 kts | 137° |
| 2026-05-07 13:18 | 48.45687 | 2.36157 | 35566 ft | 511 kts | 137° |
| 2026-05-07 13:18 | 48.43184 | 2.39941 | 35835 ft | 510 kts | 137° |
| 2026-05-07 13:19 | 48.40680 | 2.43720 | 36085 ft | 509 kts | 137° |
| 2026-05-07 13:19 | 48.38179 | 2.47491 | 36296 ft | 509 kts | 137° |
| 2026-05-07 13:19 | 48.35669 | 2.51268 | 36445 ft | 511 kts | 137° |
| 2026-05-07 13:19 | 48.33153 | 2.55049 | 36589 ft | 512 kts | 137° |
| 2026-05-07 13:20 | 48.30628 | 2.58838 | 36730 ft | 514 kts | 138° |
| 2026-05-07 13:20 | 48.27896 | 2.62254 | 36900 ft | 510 kts | 149° |
| 2026-05-07 13:20 | 48.24823 | 2.64858 | 37052 ft | 507 kts | 158° |
| 2026-05-07 13:20 | 48.21620 | 2.67120 | 37045 ft | 508 kts | 154° |
| 2026-05-07 13:21 | 48.15428 | 2.72068 | 37033 ft | 508 kts | 154° |
| 2026-05-07 13:21 | 48.09213 | 2.77143 | 37042 ft | 510 kts | 149° |
| 2026-05-07 13:22 | 48.06394 | 2.80384 | 37059 ft | 515 kts | 138° |
| 2026-05-07 13:22 | 48.03974 | 2.84339 | 37068 ft | 517 kts | 131° |
| 2026-05-07 13:22 | 47.99408 | 2.92622 | 37054 ft | 518 kts | 131° |
| 2026-05-07 13:23 | 47.95463 | 2.99860 | 36741 ft | 494 kts | 131° |
| 2026-05-07 13:23 | 47.93307 | 3.03809 | 35957 ft | 491 kts | 131° |
| 2026-05-07 13:23 | 47.91138 | 3.07776 | 34892 ft | 495 kts | 131° |
| 2026-05-07 13:24 | 47.88948 | 3.11772 | 33887 ft | 498 kts | 131° |
| 2026-05-07 13:24 | 47.86787 | 3.15701 | 33006 ft | 495 kts | 131° |
| 2026-05-07 13:24 | 47.84613 | 3.19625 | 32343 ft | 487 kts | 131° |
| 2026-05-07 13:24 | 47.82480 | 3.23451 | 31885 ft | 475 kts | 131° |
| 2026-05-07 13:25 | 47.80395 | 3.27166 | 31587 ft | 460 kts | 132° |
| 2026-05-07 13:25 | 47.78367 | 3.30762 | 31305 ft | 447 kts | 132° |
| 2026-05-07 13:25 | 47.76383 | 3.34263 | 30786 ft | 440 kts | 132° |
| 2026-05-07 13:25 | 47.74406 | 3.37733 | 29938 ft | 440 kts | 132° |
| 2026-05-07 13:26 | 47.72417 | 3.41206 | 28940 ft | 442 kts | 132° |
| 2026-05-07 13:26 | 47.70422 | 3.44678 | 28122 ft | 440 kts | 132° |
| 2026-05-07 13:26 | 47.68440 | 3.48118 | 27490 ft | 434 kts | 132° |
| 2026-05-07 13:26 | 47.66495 | 3.51483 | 27022 ft | 425 kts | 132° |
| 2026-05-07 13:27 | 47.64591 | 3.54774 | 26605 ft | 415 kts | 132° |
| 2026-05-07 13:27 | 47.62728 | 3.57993 | 26067 ft | 409 kts | 132° |
| 2026-05-07 13:27 | 47.60879 | 3.61187 | 25380 ft | 408 kts | 132° |
| 2026-05-07 13:27 | 47.59025 | 3.64383 | 24640 ft | 409 kts | 132° |
| 2026-05-07 13:28 | 47.57198 | 3.67529 | 24003 ft | 407 kts | 132° |
| 2026-05-07 13:28 | 47.55364 | 3.70681 | 23480 ft | 401 kts | 132° |
| 2026-05-07 13:28 | 47.53535 | 3.73819 | 22959 ft | 394 kts | 133° |
| 2026-05-07 13:28 | 47.51782 | 3.76821 | 22397 ft | 388 kts | 133° |
| 2026-05-07 13:29 | 47.50017 | 3.79834 | 21737 ft | 386 kts | 133° |
| 2026-05-07 13:29 | 47.48256 | 3.82824 | 21055 ft | 385 kts | 133° |
| 2026-05-07 13:29 | 47.46497 | 3.85791 | 20462 ft | 382 kts | 133° |
| 2026-05-07 13:29 | 47.44754 | 3.88710 | 19963 ft | 376 kts | 133° |
| 2026-05-07 13:30 | 47.43036 | 3.91578 | 19476 ft | 370 kts | 133° |
| 2026-05-07 13:30 | 47.41336 | 3.94411 | 18928 ft | 367 kts | 133° |
| 2026-05-07 13:30 | 47.39641 | 3.97224 | 18331 ft | 366 kts | 133° |
| 2026-05-07 13:30 | 47.37951 | 4.00020 | 17686 ft | 364 kts | 133° |
| 2026-05-07 13:31 | 47.36276 | 4.02788 | 17124 ft | 360 kts | 133° |
| 2026-05-07 13:31 | 47.34619 | 4.05519 | 16642 ft | 355 kts | 133° |
| 2026-05-07 13:31 | 47.32985 | 4.08213 | 16103 ft | 350 kts | 133° |
| 2026-05-07 13:31 | 47.31363 | 4.10880 | 15523 ft | 349 kts | 133° |
| 2026-05-07 13:32 | 47.29742 | 4.13532 | 14937 ft | 347 kts | 133° |
| 2026-05-07 13:32 | 47.28127 | 4.16158 | 14418 ft | 344 kts | 133° |
| 2026-05-07 13:32 | 47.26550 | 4.18718 | 13946 ft | 340 kts | 133° |
| 2026-05-07 13:32 | 47.24963 | 4.21290 | 13399 ft | 338 kts | 133° |
| 2026-05-07 13:33 | 47.23389 | 4.23839 | 12835 ft | 335 kts | 133° |
| 2026-05-07 13:33 | 47.21834 | 4.26371 | 12319 ft | 332 kts | 133° |
| 2026-05-07 13:33 | 47.20302 | 4.28883 | 11824 ft | 327 kts | 133° |
| 2026-05-07 13:33 | 47.18791 | 4.31361 | 11326 ft | 324 kts | 133° |
| 2026-05-07 13:34 | 47.17293 | 4.33818 | 10808 ft | 322 kts | 133° |
| 2026-05-07 13:34 | 47.14352 | 4.38713 | 9786 ft | 317 kts | 132° |
| 2026-05-07 13:34 | 47.12901 | 4.41138 | 9285 ft | 314 kts | 133° |
| 2026-05-07 13:35 | 47.11465 | 4.43536 | 8788 ft | 311 kts | 133° |
| 2026-05-07 13:35 | 47.10041 | 4.45909 | 8274 ft | 309 kts | 132° |
| 2026-05-07 13:35 | 47.08617 | 4.48251 | 7770 ft | 306 kts | 133° |
| 2026-05-07 13:35 | 47.07195 | 4.50556 | 7294 ft | 303 kts | 133° |
| 2026-05-07 13:36 | 47.05775 | 4.52822 | 6823 ft | 300 kts | 133° |
| 2026-05-07 13:36 | 47.04383 | 4.55030 | 6396 ft | 297 kts | 133° |
| 2026-05-07 13:36 | 47.02978 | 4.57242 | 5884 ft | 296 kts | 134° |
| 2026-05-07 13:36 | 47.01568 | 4.59441 | 5353 ft | 296 kts | 134° |
| 2026-05-07 13:37 | 47.00156 | 4.61619 | 4901 ft | 293 kts | 134° |
| 2026-05-07 13:37 | 46.98762 | 4.63770 | 4399 ft | 290 kts | 134° |
| 2026-05-07 13:37 | 46.97370 | 4.65905 | 3914 ft | 289 kts | 134° |
| 2026-05-07 13:37 | 46.95981 | 4.68021 | 3397 ft | 288 kts | 134° |
| 2026-05-07 13:38 | 46.94586 | 4.70116 | 2921 ft | 286 kts | 135° |
| 2026-05-07 13:38 | 46.93206 | 4.72204 | 2432 ft | 283 kts | 134° |
| 2026-05-07 13:38 | 46.91849 | 4.74274 | 1948 ft | 281 kts | 134° |
| 2026-05-07 13:38 | 46.90486 | 4.76304 | 1512 ft | 278 kts | 134° |
| 2026-05-07 13:39 | 46.89136 | 4.78289 | 1095 ft | 274 kts | 135° |
| 2026-05-07 13:39 | 46.87872 | 4.80142 | 1507 ft | 269 kts | 135° |
| 2026-05-07 13:39 | 46.86688 | 4.81874 | 3745 ft | 196 kts | 135° |
| 2026-05-07 13:39 | 46.85885 | 4.83061 | 5905 ft | 164 kts | 135° |
| 2026-05-07 13:40 | 46.85230 | 4.84029 | 4210 ft | 284 kts | 133° |
| 2026-05-07 13:40 | 46.84236 | 4.86365 | 5381 ft | 263 kts | 102° |
| 2026-05-07 13:40 | 46.84080 | 4.88903 | 7209 ft | 244 kts | 92° |
| 2026-05-07 13:40 | 46.83998 | 4.91371 | 8455 ft | 244 kts | 96° |
| 2026-05-07 13:41 | 46.83723 | 4.93832 | 9580 ft | 247 kts | 106° |
| 2026-05-07 13:41 | 46.83177 | 4.96220 | 10593 ft | 250 kts | 116° |
| 2026-05-07 13:41 | 46.82304 | 4.98434 | 11539 ft | 254 kts | 129° |
| 2026-05-07 13:41 | 46.81121 | 5.00387 | 12477 ft | 259 kts | 135° |
| 2026-05-07 13:42 | 46.79863 | 5.02324 | 13440 ft | 266 kts | 133° |
| 2026-05-07 13:42 | 46.78630 | 5.04384 | 14323 ft | 272 kts | 131° |
| 2026-05-07 13:42 | 46.77398 | 5.06512 | 15215 ft | 277 kts | 132° |
| 2026-05-07 13:42 | 46.76134 | 5.08655 | 16104 ft | 281 kts | 133° |
| 2026-05-07 13:43 | 46.74842 | 5.10817 | 17019 ft | 284 kts | 133° |
| 2026-05-07 13:43 | 46.73538 | 5.13005 | 17913 ft | 288 kts | 133° |
| 2026-05-07 13:43 | 46.72215 | 5.15232 | 18743 ft | 292 kts | 133° |
| 2026-05-07 13:43 | 46.70873 | 5.17488 | 19508 ft | 296 kts | 133° |
| 2026-05-07 13:44 | 46.69513 | 5.19770 | 20275 ft | 300 kts | 133° |
| 2026-05-07 13:44 | 46.68154 | 5.22048 | 21026 ft | 304 kts | 133° |
| 2026-05-07 13:44 | 46.66756 | 5.24390 | 21778 ft | 308 kts | 133° |
| 2026-05-07 13:44 | 46.65342 | 5.26757 | 22520 ft | 312 kts | 133° |
| 2026-05-07 13:45 | 46.63914 | 5.29145 | 23291 ft | 314 kts | 133° |
| 2026-05-07 13:45 | 46.62472 | 5.31554 | 23947 ft | 317 kts | 133° |
| 2026-05-07 13:45 | 46.61016 | 5.33985 | 24550 ft | 321 kts | 134° |
| 2026-05-07 13:45 | 46.59544 | 5.36440 | 25167 ft | 323 kts | 134° |
| 2026-05-07 13:46 | 46.58063 | 5.38909 | 25737 ft | 326 kts | 134° |
| 2026-05-07 13:46 | 46.56567 | 5.41399 | 26353 ft | 328 kts | 134° |
| 2026-05-07 13:46 | 46.55065 | 5.43898 | 26954 ft | 330 kts | 134° |
| 2026-05-07 13:46 | 46.53552 | 5.46413 | 27545 ft | 332 kts | 134° |
| 2026-05-07 13:47 | 46.52028 | 5.48942 | 28133 ft | 334 kts | 134° |
| 2026-05-07 13:47 | 46.50496 | 5.51484 | 28700 ft | 335 kts | 134° |
| 2026-05-07 13:47 | 46.48953 | 5.54041 | 29258 ft | 337 kts | 135° |
| 2026-05-07 13:47 | 46.47403 | 5.56607 | 29817 ft | 339 kts | 135° |
| 2026-05-07 13:48 | 46.45843 | 5.59188 | 30322 ft | 341 kts | 135° |
| 2026-05-07 13:48 | 46.44275 | 5.61779 | 30762 ft | 343 kts | 135° |
| 2026-05-07 13:48 | 46.42721 | 5.64346 | 31178 ft | 345 kts | 135° |
| 2026-05-07 13:48 | 46.41130 | 5.66970 | 31591 ft | 347 kts | 136° |
| 2026-05-07 13:49 | 46.39529 | 5.69606 | 32021 ft | 349 kts | 136° |
| 2026-05-07 13:49 | 46.37918 | 5.72258 | 32439 ft | 351 kts | 136° |
| 2026-05-07 13:49 | 46.36301 | 5.74918 | 32874 ft | 353 kts | 136° |
| 2026-05-07 13:49 | 46.34674 | 5.77593 | 33282 ft | 355 kts | 136° |
| 2026-05-07 13:50 | 46.33037 | 5.80278 | 33698 ft | 357 kts | 136° |
| 2026-05-07 13:50 | 46.31394 | 5.82972 | 34092 ft | 358 kts | 136° |
| 2026-05-07 13:50 | 46.29738 | 5.85684 | 34434 ft | 360 kts | 136° |
| 2026-05-07 13:50 | 46.28075 | 5.88408 | 34773 ft | 362 kts | 136° |
| 2026-05-07 13:51 | 46.26407 | 5.91135 | 35118 ft | 363 kts | 136° |
| 2026-05-07 13:51 | 46.24732 | 5.93870 | 35474 ft | 364 kts | 136° |
| 2026-05-07 13:51 | 46.23050 | 5.96615 | 35829 ft | 365 kts | 136° |
| 2026-05-07 13:51 | 46.21362 | 5.99366 | 36158 ft | 367 kts | 136° |
| 2026-05-07 13:52 | 46.19667 | 6.02127 | 36461 ft | 368 kts | 136° |
| 2026-05-07 13:52 | 46.17964 | 6.04896 | 36780 ft | 370 kts | 136° |
| 2026-05-07 13:52 | 46.16247 | 6.07685 | 36981 ft | 375 kts | 136° |
| 2026-05-07 13:52 | 46.14510 | 6.10500 | 36988 ft | 386 kts | 136° |
| 2026-05-07 13:53 | 46.12698 | 6.13438 | 36994 ft | 397 kts | 136° |
| 2026-05-07 13:53 | 46.10837 | 6.16454 | 37000 ft | 409 kts | 136° |
| 2026-05-07 13:53 | 46.08917 | 6.19563 | 37002 ft | 421 kts | 136° |
| 2026-05-07 13:53 | 46.06941 | 6.22757 | 37002 ft | 433 kts | 136° |
| 2026-05-07 13:54 | 46.04906 | 6.26041 | 37000 ft | 444 kts | 136° |
| 2026-05-07 13:54 | 46.02822 | 6.29402 | 37001 ft | 455 kts | 135° |
| 2026-05-07 13:54 | 46.00695 | 6.32830 | 36995 ft | 460 kts | 135° |
| 2026-05-07 13:55 | 45.96431 | 6.39689 | 36991 ft | 461 kts | 136° |
| 2026-05-07 13:55 | 45.92147 | 6.46555 | 36979 ft | 462 kts | 136° |
| 2026-05-07 13:56 | 45.87858 | 6.53416 | 36979 ft | 461 kts | 136° |
| 2026-05-07 13:56 | 45.83569 | 6.60258 | 36969 ft | 461 kts | 136° |
| 2026-05-07 13:57 | 45.79301 | 6.67052 | 36963 ft | 462 kts | 136° |
| 2026-05-07 13:57 | 45.74995 | 6.73888 | 36954 ft | 463 kts | 136° |
| 2026-05-07 13:58 | 45.70672 | 6.80732 | 36961 ft | 463 kts | 136° |
| 2026-05-07 13:58 | 45.66343 | 6.87571 | 36962 ft | 464 kts | 137° |
| 2026-05-07 13:59 | 45.62010 | 6.94398 | 36961 ft | 463 kts | 137° |
| 2026-05-07 13:59 | 45.57681 | 7.01203 | 36958 ft | 462 kts | 137° |
| 2026-05-07 14:00 | 45.53353 | 7.08012 | 36943 ft | 467 kts | 134° |
| 2026-05-07 14:00 | 45.49750 | 7.15790 | 36948 ft | 471 kts | 126° |
| 2026-05-07 14:01 | 45.46303 | 7.23734 | 36952 ft | 471 kts | 126° |
| 2026-05-07 14:01 | 45.42824 | 7.31631 | 36945 ft | 471 kts | 126° |
| 2026-05-07 14:02 | 45.38747 | 7.38729 | 36997 ft | 458 kts | 146° |
| 2026-05-07 14:02 | 45.33684 | 7.44071 | 36967 ft | 456 kts | 149° |
| 2026-05-07 14:03 | 45.28538 | 7.49348 | 36975 ft | 455 kts | 149° |
| 2026-05-07 14:03 | 45.23420 | 7.54636 | 36963 ft | 455 kts | 149° |
| 2026-05-07 14:04 | 45.18290 | 7.59894 | 36953 ft | 455 kts | 149° |
| 2026-05-07 14:04 | 45.13159 | 7.65157 | 36982 ft | 455 kts | 149° |
| 2026-05-07 14:05 | 45.08037 | 7.70394 | 36938 ft | 453 kts | 150° |
| 2026-05-07 14:05 | 45.02952 | 7.75581 | 36942 ft | 453 kts | 150° |
| 2026-05-07 14:06 | 44.97827 | 7.80798 | 36946 ft | 454 kts | 150° |
| 2026-05-07 14:06 | 44.92914 | 7.86424 | 36966 ft | 462 kts | 136° |
| 2026-05-07 14:06 | 44.90981 | 7.90082 | 36966 ft | 469 kts | 124° |
| 2026-05-07 14:07 | 44.89346 | 7.94072 | 36952 ft | 470 kts | 124° |
| 2026-05-07 14:07 | 44.86122 | 8.02082 | 36941 ft | 470 kts | 124° |
| 2026-05-07 14:08 | 44.82869 | 8.10095 | 36949 ft | 471 kts | 124° |
| 2026-05-07 14:08 | 44.79615 | 8.18106 | 36952 ft | 471 kts | 124° |
| 2026-05-07 14:09 | 44.76377 | 8.26048 | 36952 ft | 471 kts | 124° |
| 2026-05-07 14:09 | 44.73111 | 8.34036 | 36953 ft | 471 kts | 124° |
| 2026-05-07 14:10 | 44.69838 | 8.42021 | 36952 ft | 471 kts | 124° |
| 2026-05-07 14:10 | 44.66562 | 8.49991 | 36958 ft | 471 kts | 124° |
| 2026-05-07 14:11 | 44.63284 | 8.57941 | 36968 ft | 470 kts | 125° |
| 2026-05-07 14:11 | 44.59999 | 8.65885 | 36976 ft | 470 kts | 125° |
| 2026-05-07 14:12 | 44.56710 | 8.73820 | 36998 ft | 470 kts | 125° |
| 2026-05-07 14:12 | 44.53408 | 8.81763 | 37005 ft | 471 kts | 125° |
| 2026-05-07 14:13 | 44.50123 | 8.89642 | 37013 ft | 471 kts | 125° |
| 2026-05-07 14:13 | 44.46810 | 8.97565 | 37007 ft | 471 kts | 125° |
| 2026-05-07 14:14 | 44.43493 | 9.05479 | 37004 ft | 471 kts | 125° |
| 2026-05-07 14:14 | 44.40168 | 9.13386 | 36987 ft | 471 kts | 125° |
| 2026-05-07 14:15 | 44.36840 | 9.21281 | 36984 ft | 471 kts | 125° |
| 2026-05-07 14:15 | 44.33504 | 9.29172 | 36976 ft | 472 kts | 126° |
| 2026-05-07 14:16 | 44.30158 | 9.37066 | 36976 ft | 472 kts | 126° |
| 2026-05-07 14:16 | 44.26805 | 9.44955 | 36978 ft | 472 kts | 126° |
| 2026-05-07 14:17 | 44.23442 | 9.52843 | 36976 ft | 473 kts | 126° |
| 2026-05-07 14:17 | 44.20096 | 9.60671 | 36989 ft | 473 kts | 126° |
| 2026-05-07 14:18 | 44.16724 | 9.68541 | 36993 ft | 473 kts | 126° |
| 2026-05-07 14:18 | 44.13348 | 9.76396 | 36994 ft | 472 kts | 126° |
| 2026-05-07 14:19 | 44.09967 | 9.84240 | 36983 ft | 472 kts | 126° |
| 2026-05-07 14:19 | 44.06584 | 9.92070 | 37006 ft | 472 kts | 126° |
| 2026-05-07 14:20 | 44.03194 | 9.99892 | 37003 ft | 472 kts | 126° |
| 2026-05-07 14:20 | 43.99802 | 10.07699 | 37001 ft | 472 kts | 126° |
| 2026-05-07 14:21 | 43.96403 | 10.15502 | 36987 ft | 472 kts | 127° |
| 2026-05-07 14:21 | 43.93003 | 10.23283 | 36993 ft | 471 kts | 127° |
| 2026-05-07 14:22 | 43.89620 | 10.31008 | 36990 ft | 471 kts | 127° |
| 2026-05-07 14:22 | 43.86207 | 10.38776 | 36999 ft | 472 kts | 127° |
| 2026-05-07 14:23 | 43.82795 | 10.46527 | 36999 ft | 471 kts | 127° |
| 2026-05-07 14:23 | 43.79375 | 10.54270 | 36997 ft | 471 kts | 127° |
| 2026-05-07 14:24 | 43.75949 | 10.62007 | 36995 ft | 472 kts | 127° |
| 2026-05-07 14:24 | 43.72519 | 10.69736 | 36995 ft | 472 kts | 127° |
| 2026-05-07 14:25 | 43.69073 | 10.77475 | 36982 ft | 473 kts | 127° |
| 2026-05-07 14:25 | 43.65618 | 10.85219 | 36977 ft | 473 kts | 127° |
| 2026-05-07 14:26 | 43.62161 | 10.92942 | 36978 ft | 473 kts | 127° |
| 2026-05-07 14:26 | 43.58701 | 11.00656 | 36979 ft | 473 kts | 127° |
| 2026-05-07 14:27 | 43.55262 | 11.08300 | 36974 ft | 473 kts | 127° |
| 2026-05-07 14:27 | 43.51778 | 11.16025 | 36973 ft | 473 kts | 128° |
| 2026-05-07 14:28 | 43.48300 | 11.23715 | 36975 ft | 473 kts | 128° |
| 2026-05-07 14:28 | 43.44813 | 11.31405 | 36956 ft | 474 kts | 128° |
| 2026-05-07 14:29 | 43.41314 | 11.39100 | 36982 ft | 475 kts | 128° |
| 2026-05-07 14:29 | 43.37809 | 11.46793 | 36978 ft | 475 kts | 128° |
| 2026-05-07 14:30 | 43.34867 | 11.53229 | 36978 ft | 474 kts | 128° |
| 2026-05-07 14:30 | 43.31351 | 11.60907 | 36979 ft | 475 kts | 128° |
| 2026-05-07 14:31 | 43.27830 | 11.68573 | 36962 ft | 475 kts | 128° |
| 2026-05-07 14:31 | 43.24302 | 11.76236 | 36973 ft | 475 kts | 128° |
| 2026-05-07 14:32 | 43.20791 | 11.83843 | 36973 ft | 475 kts | 128° |
| 2026-05-07 14:32 | 43.17238 | 11.91518 | 36971 ft | 477 kts | 128° |
| 2026-05-07 14:33 | 43.13680 | 11.99188 | 36969 ft | 477 kts | 128° |
| 2026-05-07 14:33 | 43.10118 | 12.06841 | 36966 ft | 477 kts | 128° |
| 2026-05-07 14:34 | 43.06539 | 12.14516 | 36965 ft | 478 kts | 129° |
| 2026-05-07 14:34 | 43.02961 | 12.22168 | 36967 ft | 477 kts | 129° |
| 2026-05-07 14:35 | 42.99379 | 12.29806 | 36967 ft | 477 kts | 129° |
| 2026-05-07 14:35 | 42.95816 | 12.37385 | 36946 ft | 477 kts | 129° |
| 2026-05-07 14:36 | 42.92209 | 12.45036 | 36976 ft | 480 kts | 129° |
| 2026-05-07 14:36 | 42.88592 | 12.52696 | 36953 ft | 480 kts | 129° |
| 2026-05-07 14:37 | 42.84974 | 12.60330 | 36956 ft | 479 kts | 129° |
| 2026-05-07 14:37 | 42.79561 | 12.71720 | 36957 ft | 479 kts | 129° |
| 2026-05-07 14:38 | 42.75935 | 12.79325 | 36958 ft | 480 kts | 129° |
| 2026-05-07 14:38 | 42.72288 | 12.86955 | 36964 ft | 481 kts | 129° |
| 2026-05-07 14:39 | 42.68642 | 12.94567 | 36975 ft | 481 kts | 129° |
| 2026-05-07 14:39 | 42.64965 | 13.02216 | 36977 ft | 483 kts | 129° |
| 2026-05-07 14:40 | 42.61291 | 13.09846 | 36979 ft | 482 kts | 129° |
| 2026-05-07 14:40 | 42.57647 | 13.17390 | 36967 ft | 481 kts | 129° |
| 2026-05-07 14:41 | 42.53973 | 13.24979 | 36969 ft | 482 kts | 129° |
| 2026-05-07 14:41 | 42.50286 | 13.32574 | 36975 ft | 482 kts | 129° |
| 2026-05-07 14:42 | 42.46603 | 13.40147 | 36963 ft | 481 kts | 129° |
| 2026-05-07 14:42 | 42.42924 | 13.47683 | 36939 ft | 482 kts | 130° |
| 2026-05-07 14:43 | 42.39217 | 13.55261 | 36971 ft | 488 kts | 130° |
| 2026-05-07 14:43 | 42.37172 | 13.58849 | 36996 ft | 475 kts | 143° |
| 2026-05-07 14:43 | 42.34655 | 13.61652 | 37001 ft | 461 kts | 158° |
| 2026-05-07 14:44 | 42.31924 | 13.63471 | 37022 ft | 452 kts | 171° |
| 2026-05-07 14:44 | 42.28783 | 13.64431 | 37037 ft | 445 kts | 185° |
| 2026-05-07 14:44 | 42.22633 | 13.63969 | 36999 ft | 444 kts | 200° |
| 2026-05-07 14:45 | 42.19691 | 13.62758 | 36598 ft | 442 kts | 213° |
| 2026-05-07 14:45 | 42.17092 | 13.60706 | 36073 ft | 425 kts | 225° |
| 2026-05-07 14:45 | 42.15014 | 13.57985 | 35549 ft | 411 kts | 235° |
| 2026-05-07 14:45 | 42.13276 | 13.54949 | 34932 ft | 406 kts | 240° |
| 2026-05-07 14:46 | 42.11827 | 13.51764 | 34304 ft | 403 kts | 245° |
| 2026-05-07 14:46 | 42.10649 | 13.48359 | 33632 ft | 400 kts | 250° |
| 2026-05-07 14:46 | 42.09779 | 13.44814 | 32893 ft | 398 kts | 255° |
| 2026-05-07 14:46 | 42.09048 | 13.41226 | 32159 ft | 397 kts | 254° |
| 2026-05-07 14:47 | 42.08223 | 13.37686 | 31447 ft | 396 kts | 252° |
| 2026-05-07 14:47 | 42.07322 | 13.34188 | 30738 ft | 395 kts | 252° |
| 2026-05-07 14:47 | 42.06450 | 13.30670 | 30052 ft | 395 kts | 253° |
| 2026-05-07 14:47 | 42.05620 | 13.27149 | 29258 ft | 396 kts | 253° |
| 2026-05-07 14:48 | 42.04778 | 13.23621 | 28470 ft | 395 kts | 252° |
| 2026-05-07 14:48 | 42.03918 | 13.20118 | 27716 ft | 394 kts | 252° |
| 2026-05-07 14:48 | 42.03059 | 13.16621 | 26971 ft | 393 kts | 252° |
| 2026-05-07 14:48 | 42.02212 | 13.13131 | 26259 ft | 393 kts | 252° |
| 2026-05-07 14:49 | 42.01364 | 13.09639 | 25562 ft | 392 kts | 252° |
| 2026-05-07 14:49 | 42.00515 | 13.06167 | 24878 ft | 391 kts | 252° |
| 2026-05-07 14:49 | 41.99661 | 13.02694 | 24198 ft | 391 kts | 252° |
| 2026-05-07 14:49 | 41.98811 | 12.99224 | 23534 ft | 391 kts | 252° |
| 2026-05-07 14:50 | 41.97962 | 12.95763 | 22771 ft | 390 kts | 251° |
| 2026-05-07 14:50 | 41.97109 | 12.92291 | 21637 ft | 395 kts | 251° |
| 2026-05-07 14:50 | 41.96255 | 12.88825 | 20367 ft | 383 kts | 251° |
| 2026-05-07 14:50 | 41.95433 | 12.85494 | 19161 ft | 369 kts | 251° |
| 2026-05-07 14:51 | 41.94633 | 12.82281 | 17942 ft | 357 kts | 249° |
| 2026-05-07 14:51 | 41.93399 | 12.79452 | 16666 ft | 349 kts | 229° |
| 2026-05-07 14:51 | 41.91511 | 12.77478 | 15454 ft | 343 kts | 207° |
| 2026-05-07 14:51 | 41.89347 | 12.76240 | 14248 ft | 332 kts | 211° |
| 2026-05-07 14:52 | 41.87672 | 12.74206 | 13044 ft | 324 kts | 236° |
| 2026-05-07 14:52 | 41.86848 | 12.71453 | 11809 ft | 319 kts | 262° |
| 2026-05-07 14:52 | 41.86905 | 12.68501 | 10613 ft | 316 kts | 277° |
| 2026-05-07 14:52 | 41.87581 | 12.65715 | 9408 ft | 314 kts | 295° |
| 2026-05-07 14:53 | 41.88654 | 12.63174 | 8141 ft | 311 kts | 299° |
| 2026-05-07 14:53 | 41.89714 | 12.60663 | 6936 ft | 308 kts | 296° |
| 2026-05-07 14:53 | 41.90605 | 12.58089 | 6084 ft | 296 kts | 293° |
| 2026-05-07 14:53 | 41.91380 | 12.55676 | 5907 ft | 270 kts | 294° |
| 2026-05-07 14:54 | 41.92159 | 12.53382 | 5815 ft | 272 kts | 295° |
| 2026-05-07 14:54 | 41.92972 | 12.51059 | 5705 ft | 275 kts | 295° |
| 2026-05-07 14:54 | 41.93774 | 12.48737 | 5589 ft | 270 kts | 294° |
| 2026-05-07 14:54 | 41.94557 | 12.46439 | 5375 ft | 271 kts | 294° |
| 2026-05-07 14:55 | 41.95339 | 12.44151 | 5129 ft | 269 kts | 294° |
| 2026-05-07 14:55 | 41.96109 | 12.41904 | 4878 ft | 268 kts | 295° |
| 2026-05-07 14:55 | 41.96889 | 12.39625 | 4635 ft | 268 kts | 295° |
| 2026-05-07 14:55 | 41.97670 | 12.37344 | 4300 ft | 268 kts | 295° |
| 2026-05-07 14:56 | 41.98438 | 12.35095 | 3979 ft | 258 kts | 295° |
| 2026-05-07 14:56 | 41.99154 | 12.32995 | 3922 ft | 238 kts | 295° |
| 2026-05-07 14:56 | 41.99844 | 12.30972 | 3925 ft | 237 kts | 295° |
| 2026-05-07 14:56 | 42.00527 | 12.28969 | 3923 ft | 236 kts | 295° |
| 2026-05-07 14:57 | 42.01211 | 12.26961 | 3922 ft | 236 kts | 295° |
| 2026-05-07 14:57 | 42.01893 | 12.24955 | 3922 ft | 236 kts | 295° |
| 2026-05-07 14:57 | 42.02575 | 12.22949 | 3921 ft | 236 kts | 295° |
| 2026-05-07 14:57 | 42.03257 | 12.20943 | 3919 ft | 236 kts | 295° |
| 2026-05-07 14:58 | 42.03939 | 12.18935 | 3916 ft | 236 kts | 294° |
| 2026-05-07 14:58 | 42.04307 | 12.16812 | 4026 ft | 236 kts | 264° |
| 2026-05-07 14:58 | 42.03616 | 12.14861 | 4037 ft | 232 kts | 225° |
| 2026-05-07 14:58 | 42.02234 | 12.14012 | 4027 ft | 218 kts | 184° |
| 2026-05-07 14:59 | 42.00783 | 12.14522 | 4004 ft | 219 kts | 156° |
| 2026-05-07 14:59 | 41.99351 | 12.15181 | 3756 ft | 216 kts | 163° |
| 2026-05-07 14:59 | 41.97921 | 12.15779 | 3491 ft | 215 kts | 163° |
| 2026-05-07 14:59 | 41.96495 | 12.16375 | 3215 ft | 214 kts | 162° |
| 2026-05-07 15:00 | 41.95071 | 12.16967 | 2911 ft | 214 kts | 161° |
| 2026-05-07 15:00 | 41.93651 | 12.17567 | 2633 ft | 213 kts | 161° |
| 2026-05-07 15:00 | 41.92243 | 12.18164 | 2356 ft | 212 kts | 161° |
| 2026-05-07 15:00 | 41.90853 | 12.18751 | 1963 ft | 204 kts | 162° |
| 2026-05-07 15:01 | 41.89544 | 12.19302 | 1697 ft | 188 kts | 163° |
| 2026-05-07 15:01 | 41.88354 | 12.19794 | 1408 ft | 168 kts | 164° |
| 2026-05-07 15:01 | 41.87291 | 12.20230 | 1178 ft | 151 kts | 165° |
| 2026-05-07 15:01 | 41.86324 | 12.20650 | 905 ft | 144 kts | 164° |
| 2026-05-07 15:02 | 41.85366 | 12.21047 | 775 ft | 149 kts | 167° |
| 2026-05-07 15:02 | 41.84341 | 12.21461 | 714 ft | 153 kts | 165° |
| 2026-05-07 15:02 | 41.83315 | 12.21891 | 470 ft | 152 kts | 165° |
| 2026-05-07 15:02 | 41.82324 | 12.22319 | 254 ft | 149 kts | 167° |
| 2026-05-07 15:03 | 41.81323 | 12.22729 | 50 ft | 152 kts | 165° |
| 2026-05-07 15:03 | 41.80399 | 12.23120 | 25 ft | 122 kts | 162° |
| 2026-05-07 15:03 | 41.79757 | 12.23392 | 22 ft | 66 kts | 162° |
| 2026-05-07 15:03 | 41.79397 | 12.23701 | 23 ft | 58 kts | 133° |
| 2026-05-07 15:04 | 41.79302 | 12.23888 | 22 ft | 2 kts | 75° |
| 2026-05-07 15:04 | 41.79333 | 12.23967 | 22 ft | 19 kts | 64° |
| 2026-05-07 15:04 | 41.79434 | 12.24106 | 20 ft | 18 kts | 22° |
| 2026-05-07 15:04 | 41.79449 | 12.24114 | 21 ft | 1 kts | 23° |
| 2026-05-07 15:05 | 41.79461 | 12.24121 | 22 ft | 2 kts | 22° |
| 2026-05-07 15:05 | 41.79463 | 12.24122 | 21 ft | 0 kts | 22° |
| 2026-05-07 17:29 | 41.79460 | 12.24120 | 20 ft | 3 kts | 24° |
| 2026-05-07 17:30 | 41.79431 | 12.24104 | 25 ft | 3 kts | 28° |
| 2026-05-07 17:30 | 41.79381 | 12.24092 | 23 ft | 6 kts | 337° |
| 2026-05-07 17:30 | 41.79373 | 12.24097 | 23 ft | 0 kts | 332° |
| 2026-05-07 17:31 | 41.79380 | 12.24082 | 22 ft | 1 kts | 298° |
| 2026-05-07 17:31 | 41.79375 | 12.24068 | 25 ft | 3 kts | 248° |
| 2026-05-07 17:31 | 41.79338 | 12.24007 | 22 ft | 8 kts | 239° |
| 2026-05-07 17:32 | 41.79313 | 12.23880 | 24 ft | 20 kts | 266° |
| 2026-05-07 17:32 | 41.79396 | 12.23697 | 20 ft | 24 kts | 312° |
| 2026-05-07 17:32 | 41.79470 | 12.23598 | 23 ft | 5 kts | 316° |
| 2026-05-07 17:32 | 41.79516 | 12.23539 | 19 ft | 18 kts | 317° |
| 2026-05-07 17:33 | 41.80020 | 12.23279 | 28 ft | 115 kts | 343° |
| 2026-05-07 17:33 | 41.81046 | 12.22854 | 141 ft | 183 kts | 337° |
| 2026-05-07 17:33 | 41.82290 | 12.22273 | 1059 ft | 193 kts | 338° |
| 2026-05-07 17:33 | 41.83578 | 12.21615 | 2319 ft | 199 kts | 340° |
| 2026-05-07 17:34 | 41.84855 | 12.20924 | 3570 ft | 200 kts | 339° |
| 2026-05-07 17:34 | 41.86123 | 12.19904 | 4497 ft | 226 kts | 321° |
| 2026-05-07 17:34 | 41.87196 | 12.18326 | 5961 ft | 230 kts | 309° |
| 2026-05-07 17:34 | 41.88175 | 12.16641 | 7346 ft | 228 kts | 306° |
| 2026-05-07 17:35 | 41.89091 | 12.14880 | 8581 ft | 234 kts | 301° |
| 2026-05-07 17:35 | 41.90087 | 12.13080 | 9646 ft | 240 kts | 308° |
| 2026-05-07 17:35 | 41.91237 | 12.11455 | 10708 ft | 242 kts | 314° |
| 2026-05-07 17:35 | 41.91995 | 12.10483 | 11215 ft | 248 kts | 314° |
| 2026-05-07 17:36 | 41.92736 | 12.09546 | 11683 ft | 252 kts | 315° |
| 2026-05-07 17:36 | 41.94040 | 12.07936 | 12480 ft | 263 kts | 315° |
| 2026-05-07 17:36 | 41.94340 | 12.07563 | 12644 ft | 264 kts | 314° |
| 2026-05-07 17:36 | 41.95672 | 12.05896 | 13587 ft | 260 kts | 314° |
| 2026-05-07 17:37 | 41.97033 | 12.04248 | 14512 ft | 266 kts | 315° |
| 2026-05-07 17:37 | 41.98397 | 12.02626 | 15554 ft | 268 kts | 313° |
| 2026-05-07 17:37 | 41.99788 | 12.00773 | 16131 ft | 287 kts | 308° |
| 2026-05-07 17:37 | 42.01198 | 11.98892 | 17000 ft | 299 kts | 319° |
| 2026-05-07 17:38 | 42.03027 | 11.97353 | 17553 ft | 319 kts | 325° |
| 2026-05-07 17:38 | 42.04930 | 11.95795 | 18097 ft | 320 kts | 321° |
| 2026-05-07 17:38 | 42.06685 | 11.93971 | 18612 ft | 318 kts | 313° |
| 2026-05-07 17:38 | 42.08246 | 11.91887 | 19073 ft | 318 kts | 309° |
| 2026-05-07 17:39 | 42.09816 | 11.89760 | 19555 ft | 321 kts | 312° |
| 2026-05-07 17:39 | 42.11466 | 11.87714 | 19945 ft | 326 kts | 314° |
| 2026-05-07 17:39 | 42.13153 | 11.85663 | 20014 ft | 326 kts | 313° |
| 2026-05-07 17:39 | 42.14812 | 11.83587 | 19979 ft | 325 kts | 312° |
| 2026-05-07 17:40 | 42.16453 | 11.81507 | 19971 ft | 324 kts | 312° |
| 2026-05-07 17:40 | 42.18100 | 11.79434 | 19954 ft | 323 kts | 313° |
| 2026-05-07 17:40 | 42.19743 | 11.77377 | 19950 ft | 323 kts | 313° |
| 2026-05-07 17:40 | 42.21392 | 11.75307 | 19951 ft | 323 kts | 313° |
| 2026-05-07 17:41 | 42.23035 | 11.73236 | 19973 ft | 323 kts | 313° |
| 2026-05-07 17:41 | 42.24673 | 11.71173 | 19971 ft | 323 kts | 313° |
| 2026-05-07 17:41 | 42.26319 | 11.69099 | 19957 ft | 323 kts | 313° |
| 2026-05-07 17:41 | 42.27955 | 11.67036 | 19966 ft | 323 kts | 313° |
| 2026-05-07 17:42 | 42.29607 | 11.64952 | 19971 ft | 323 kts | 313° |
| 2026-05-07 17:42 | 42.31247 | 11.62879 | 19971 ft | 323 kts | 313° |
| 2026-05-07 17:42 | 42.32889 | 11.60804 | 19969 ft | 323 kts | 313° |
| 2026-05-07 17:42 | 42.34560 | 11.58685 | 19994 ft | 341 kts | 313° |
| 2026-05-07 17:43 | 42.35734 | 11.57191 | 20036 ft | 360 kts | 313° |
| 2026-05-07 17:43 | 42.38278 | 11.53967 | 20213 ft | 394 kts | 313° |
| 2026-05-07 17:43 | 42.40314 | 11.51397 | 20766 ft | 406 kts | 313° |
| 2026-05-07 17:43 | 42.42400 | 11.48753 | 21318 ft | 417 kts | 313° |
| 2026-05-07 17:44 | 42.44539 | 11.46031 | 21880 ft | 426 kts | 313° |
| 2026-05-07 17:44 | 42.46722 | 11.43253 | 22445 ft | 434 kts | 313° |
| 2026-05-07 17:44 | 42.48948 | 11.40420 | 23010 ft | 442 kts | 313° |
| 2026-05-07 17:44 | 42.51206 | 11.37545 | 23573 ft | 448 kts | 313° |
| 2026-05-07 17:45 | 42.52749 | 11.35576 | 23895 ft | 452 kts | 313° |
| 2026-05-07 17:45 | 42.55052 | 11.32636 | 24369 ft | 457 kts | 313° |
| 2026-05-07 17:45 | 42.57374 | 11.29667 | 24868 ft | 461 kts | 313° |
| 2026-05-07 17:45 | 42.59666 | 11.26740 | 25723 ft | 454 kts | 312° |
| 2026-05-07 17:46 | 42.61947 | 11.23823 | 26705 ft | 446 kts | 312° |
| 2026-05-07 17:46 | 42.64182 | 11.20956 | 27659 ft | 440 kts | 311° |
| 2026-05-07 17:46 | 42.66413 | 11.18085 | 28303 ft | 441 kts | 311° |
| 2026-05-07 17:46 | 42.68643 | 11.15219 | 28985 ft | 441 kts | 310° |
| 2026-05-07 17:47 | 42.70873 | 11.12354 | 29662 ft | 441 kts | 310° |
| 2026-05-07 17:47 | 42.73091 | 11.09501 | 30308 ft | 439 kts | 310° |
| 2026-05-07 17:47 | 42.75303 | 11.06649 | 30908 ft | 438 kts | 310° |
| 2026-05-07 17:47 | 42.77512 | 11.03798 | 31508 ft | 437 kts | 309° |
| 2026-05-07 17:48 | 42.79712 | 11.00957 | 32131 ft | 435 kts | 309° |
| 2026-05-07 17:48 | 42.81902 | 10.98126 | 32762 ft | 433 kts | 309° |
| 2026-05-07 17:48 | 42.84082 | 10.95305 | 33423 ft | 431 kts | 308° |
| 2026-05-07 17:48 | 42.86242 | 10.92507 | 34040 ft | 428 kts | 308° |
| 2026-05-07 17:49 | 42.88400 | 10.89709 | 34631 ft | 425 kts | 308° |
| 2026-05-07 17:49 | 42.90504 | 10.86978 | 35212 ft | 422 kts | 308° |
| 2026-05-07 17:49 | 42.92650 | 10.84189 | 35840 ft | 419 kts | 308° |
| 2026-05-07 17:49 | 42.94719 | 10.81498 | 36442 ft | 415 kts | 308° |
| 2026-05-07 17:50 | 42.96806 | 10.78782 | 37066 ft | 411 kts | 308° |
| 2026-05-07 17:50 | 42.98860 | 10.76106 | 37692 ft | 408 kts | 308° |
| 2026-05-07 17:50 | 43.00924 | 10.73407 | 37974 ft | 412 kts | 308° |
| 2026-05-07 17:50 | 43.03019 | 10.70661 | 37972 ft | 423 kts | 308° |
| 2026-05-07 17:51 | 43.07380 | 10.64963 | 37981 ft | 442 kts | 309° |
| 2026-05-07 17:51 | 43.09622 | 10.62028 | 37970 ft | 453 kts | 309° |
| 2026-05-07 17:51 | 43.11911 | 10.59024 | 37995 ft | 461 kts | 309° |
| 2026-05-07 17:52 | 43.16578 | 10.52905 | 37987 ft | 463 kts | 309° |
| 2026-05-07 17:52 | 43.21209 | 10.46805 | 37989 ft | 462 kts | 309° |
| 2026-05-07 17:53 | 43.25852 | 10.40681 | 37990 ft | 462 kts | 309° |
| 2026-05-07 17:53 | 43.30456 | 10.34594 | 37990 ft | 463 kts | 309° |
| 2026-05-07 17:54 | 43.35092 | 10.28450 | 37989 ft | 462 kts | 309° |
| 2026-05-07 17:54 | 43.39715 | 10.22309 | 37984 ft | 463 kts | 309° |
| 2026-05-07 17:55 | 43.44360 | 10.16127 | 37984 ft | 465 kts | 309° |
| 2026-05-07 17:55 | 43.48998 | 10.09941 | 37991 ft | 465 kts | 309° |
| 2026-05-07 17:56 | 43.53644 | 10.03728 | 37992 ft | 465 kts | 309° |
| 2026-05-07 17:56 | 43.58287 | 9.97505 | 37993 ft | 465 kts | 309° |
| 2026-05-07 17:57 | 43.62141 | 9.92328 | 37989 ft | 466 kts | 309° |
| 2026-05-07 17:57 | 43.67575 | 9.85016 | 37992 ft | 467 kts | 309° |
| 2026-05-07 17:58 | 43.72211 | 9.78759 | 37995 ft | 468 kts | 309° |